Time;durP1;ratioP1;P1;durP2;ratioP2;P2;SDS_P1;SDS_P2;PMS_P1;PMS_P2;Temp;Humidity;BMP_temperature;BMP_pressure;BME280_temperature;BME280_humidity;BME280_pressure;Samples;Min_cycle;Max_cycle;Signal;HPM_P1;HPM_P2
2022/04/14 00:00:19;;;;;;;4.10;1.20;;;19.90;50.00;18.90;101581.00;;;;6208298;23;20024;-65
2022/04/14 00:03:05;;;;;;;2.47;1.55;;;19.90;50.00;18.90;101576.00;;;;6211248;23;20023;-65
2022/04/14 00:05:51;;;;;;;4.80;1.60;;;19.90;50.00;18.90;101574.00;;;;6208782;23;20023;-65
2022/04/14 00:08:37;;;;;;;3.58;1.38;;;19.90;50.00;18.90;101584.00;;;;6210982;23;20047;-65
2022/04/14 00:11:23;;;;;;;3.05;1.30;;;19.90;50.00;18.90;101578.00;;;;6210100;23;20012;-65
2022/04/14 00:14:09;;;;;;;1.77;1.48;;;19.90;50.00;18.90;101583.00;;;;6210091;23;20027;-65
2022/04/14 00:16:55;;;;;;;2.55;1.70;;;19.90;50.10;18.90;101582.00;;;;6209201;23;20012;-65
2022/04/14 00:19:41;;;;;;;2.28;1.65;;;19.90;50.10;18.90;101576.00;;;;6210297;23;20327;-65
2022/04/14 00:22:27;;;;;;;4.10;1.50;;;19.90;50.10;18.90;101571.00;;;;6210397;23;20039;-65
2022/04/14 00:25:13;;;;;;;1.55;1.20;;;19.90;50.10;18.90;101575.00;;;;6211173;23;20079;-65
2022/04/14 00:27:59;;;;;;;3.17;1.33;;;19.90;50.10;18.90;101573.00;;;;6211386;23;20063;-65
2022/04/14 00:30:45;;;;;;;4.65;1.80;;;19.90;50.10;18.90;101575.00;;;;6208755;23;20023;-65
2022/04/14 00:33:31;;;;;;;2.60;1.50;;;19.90;50.10;18.90;101571.00;;;;6209502;23;20021;-65
2022/04/14 00:36:18;;;;;;;3.78;1.90;;;19.90;50.10;18.90;101578.00;;;;6209447;23;20017;-65
2022/04/14 00:39:04;;;;;;;2.65;1.85;;;19.90;50.10;18.90;101568.00;;;;6210107;23;20088;-66
2022/04/14 00:41:50;;;;;;;2.63;1.50;;;19.90;50.20;18.90;101572.00;;;;6211056;23;20330;-65
2022/04/14 00:44:36;;;;;;;2.08;1.52;;;19.90;50.10;18.90;101562.00;;;;6210402;23;20063;-65
2022/04/14 00:47:22;;;;;;;1.88;1.52;;;19.90;50.10;18.90;101559.00;;;;6211485;23;20346;-65
2022/04/14 00:50:08;;;;;;;2.50;1.40;;;19.90;50.20;18.90;101557.00;;;;6208780;23;20012;-65
2022/04/14 00:52:55;;;;;;;4.38;1.77;;;19.90;50.10;18.90;101561.00;;;;6208526;23;20099;-65
2022/04/14 00:55:41;;;;;;;3.92;1.60;;;19.90;50.20;18.90;101553.00;;;;6209954;23;20075;-65
2022/04/14 00:58:27;;;;;;;2.58;1.70;;;19.90;50.10;18.90;101555.00;;;;6210601;23;20442;-65
2022/04/14 01:01:13;;;;;;;3.38;1.70;;;19.90;50.20;18.90;101566.00;;;;6209318;23;20498;-66
2022/04/14 01:03:59;;;;;;;3.30;1.75;;;19.90;50.80;18.90;101555.00;;;;6210099;23;20063;-65
2022/04/14 01:06:46;;;;;;;2.67;1.77;;;19.90;50.20;18.90;101560.00;;;;6189421;23;20052;-65
2022/04/14 01:09:32;;;;;;;3.03;1.63;;;19.90;50.20;18.90;101557.00;;;;6212480;23;20439;-65
2022/04/14 01:12:18;;;;;;;3.28;1.73;;;19.90;50.20;18.90;101565.00;;;;6190566;23;20017;-65
2022/04/14 01:15:10;;;;;;;3.25;1.98;;;19.90;50.20;18.90;101564.00;;;;6212352;23;20219;-65
2022/04/14 01:17:56;;;;;;;4.30;1.95;;;19.90;50.20;18.90;101561.00;;;;6192313;23;20020;-65
2022/04/14 01:20:43;;;;;;;2.55;1.80;;;19.90;50.20;18.90;101561.00;;;;6211313;23;20339;-65
2022/04/14 01:23:42;;;;;;;3.25;1.90;;;19.90;50.20;18.90;101556.00;;;;6212339;23;20025;-65
2022/04/14 01:26:28;;;;;;;3.25;1.95;;;19.90;50.20;18.80;101552.00;;;;6192491;23;20051;-65
2022/04/14 01:29:24;;;;;;;2.72;1.80;;;19.90;50.20;18.90;101551.00;;;;6170935;23;20411;-65
2022/04/14 01:32:10;;;;;;;3.55;2.00;;;19.90;50.20;18.90;101557.00;;;;6212630;23;20019;-65
2022/04/14 01:34:56;;;;;;;3.17;2.00;;;19.90;50.20;18.90;101547.00;;;;6211940;23;20466;-65
2022/04/14 01:37:43;;;;;;;2.47;1.90;;;19.90;50.30;18.90;101552.00;;;;6212466;23;20454;-65
2022/04/14 01:40:29;;;;;;;2.80;2.13;;;19.90;50.20;18.90;101558.00;;;;6211685;23;20029;-65
2022/04/14 01:43:15;;;;;;;3.00;2.00;;;19.90;50.30;18.90;101563.00;;;;6211824;23;20095;-65
2022/04/14 01:46:03;;;;;;;3.60;1.92;;;19.90;50.30;18.90;101534.00;;;;6212165;23;20051;-65
2022/04/14 01:48:49;;;;;;;4.25;2.30;;;19.90;50.30;18.90;101547.00;;;;6211901;23;20020;-65
2022/04/14 01:51:35;;;;;;;4.68;2.13;;;19.90;50.30;18.90;101551.00;;;;6212046;23;20014;-65
2022/04/14 01:54:21;;;;;;;3.13;1.90;;;19.90;50.30;18.90;101553.00;;;;6211870;23;20016;-65
2022/04/14 01:57:07;;;;;;;3.38;1.90;;;19.90;50.30;18.90;101551.00;;;;6212557;23;20368;-65
2022/04/14 01:59:53;;;;;;;3.33;1.98;;;19.90;50.30;18.90;101554.00;;;;6211667;23;20021;-65
2022/04/14 02:02:40;;;;;;;2.85;1.90;;;19.90;50.30;18.90;101549.00;;;;6212089;23;20016;-65
2022/04/14 02:05:26;;;;;;;4.00;2.58;;;19.90;50.20;18.90;101543.00;;;;6211956;23;20292;-65
2022/04/14 02:08:12;;;;;;;4.70;2.00;;;19.90;50.20;18.90;101553.00;;;;6211158;23;20349;-66
2022/04/14 02:10:58;;;;;;;3.78;2.40;;;19.90;50.20;18.90;101547.00;;;;6211904;23;20023;-65
2022/04/14 02:13:44;;;;;;;4.38;2.08;;;19.90;50.30;18.90;101544.00;;;;6211040;23;20398;-65
2022/04/14 02:16:30;;;;;;;3.67;1.92;;;19.90;50.20;18.90;101548.00;;;;6212537;23;20016;-65
2022/04/14 02:19:16;;;;;;;3.45;2.03;;;19.90;50.20;18.90;101548.00;;;;6211408;23;20043;-65
2022/04/14 02:22:02;;;;;;;3.80;1.95;;;19.90;50.30;18.90;101548.00;;;;6211051;23;20085;-65
2022/04/14 02:24:48;;;;;;;3.17;2.13;;;19.90;50.30;18.90;101548.00;;;;6212483;23;20095;-65
2022/04/14 02:27:34;;;;;;;4.65;2.10;;;19.90;50.30;18.90;101547.00;;;;6212234;23;20020;-65
2022/04/14 02:30:20;;;;;;;3.75;2.10;;;19.90;50.30;18.90;101530.00;;;;6211338;23;20012;-65
2022/04/14 02:33:07;;;;;;;4.13;2.10;;;19.90;50.30;18.90;101536.00;;;;6209562;23;20091;-65
2022/04/14 02:35:53;;;;;;;4.35;2.05;;;19.90;50.30;18.80;101535.00;;;;6211811;23;20016;-65
2022/04/14 02:38:39;;;;;;;2.78;2.33;;;19.90;50.30;18.90;101521.00;;;;6211716;23;20024;-65
2022/04/14 02:41:25;;;;;;;3.30;2.10;;;19.90;50.30;18.80;101519.00;;;;6211587;23;20021;-65
2022/04/14 02:44:11;;;;;;;3.40;2.50;;;19.90;50.30;18.80;101528.00;;;;6211088;23;20020;-65
2022/04/14 02:46:57;;;;;;;4.38;2.60;;;19.90;50.30;18.80;101518.00;;;;6212115;23;20020;-65
2022/04/14 02:49:43;;;;;;;2.90;2.20;;;19.90;50.30;18.80;101530.00;;;;6209051;23;20020;-65
2022/04/14 02:52:29;;;;;;;4.05;2.30;;;19.90;50.30;18.90;101524.00;;;;6211425;23;20023;-65
2022/04/14 02:55:17;;;;;;;3.78;2.10;;;19.90;50.30;18.80;101544.00;;;;6211319;23;20019;-65
2022/04/14 02:58:03;;;;;;;4.45;2.15;;;19.90;50.30;18.80;101544.00;;;;6211033;23;20460;-65
2022/04/14 03:00:49;;;;;;;3.53;2.65;;;19.90;50.30;18.90;101534.00;;;;6212419;23;20087;-65
2022/04/14 03:03:35;;;;;;;5.40;2.30;;;19.90;50.40;18.90;101528.00;;;;6211188;23;20016;-65
2022/04/14 03:06:21;;;;;;;3.70;2.67;;;19.80;50.30;18.90;101531.00;;;;6211596;23;20016;-65
2022/04/14 03:09:07;;;;;;;3.85;2.35;;;19.90;50.40;18.80;101515.00;;;;6211029;23;20012;-66
2022/04/14 03:11:54;;;;;;;5.47;2.33;;;19.90;50.40;18.80;101522.00;;;;6211526;23;20016;-65
2022/04/14 03:14:40;;;;;;;3.60;2.42;;;19.90;50.40;18.80;101526.00;;;;6211119;23;20021;-65
2022/04/14 03:17:26;;;;;;;2.55;2.30;;;19.90;50.40;18.80;101530.00;;;;6211082;23;20016;-65
2022/04/14 03:20:12;;;;;;;4.35;2.58;;;19.90;50.40;18.90;101528.00;;;;6210810;23;20066;-65
2022/04/14 03:22:58;;;;;;;2.70;2.35;;;19.90;50.40;18.80;101532.00;;;;6212336;23;20027;-66
2022/04/14 03:25:45;;;;;;;3.50;2.58;;;19.90;50.40;18.80;101533.00;;;;6211636;23;20017;-65
2022/04/14 03:28:31;;;;;;;3.63;2.72;;;19.90;50.40;18.90;101531.00;;;;6208814;23;20017;-65
2022/04/14 03:31:17;;;;;;;3.85;2.50;;;19.90;50.40;18.80;101539.00;;;;6210829;23;20013;-66
2022/04/14 03:34:03;;;;;;;4.03;2.55;;;19.90;50.40;18.80;101535.00;;;;6211390;23;20016;-66
2022/04/14 03:36:49;;;;;;;3.25;2.53;;;19.90;50.40;18.80;101532.00;;;;6211864;23;20026;-65
2022/04/14 03:39:35;;;;;;;3.08;2.17;;;19.90;50.50;18.80;101535.00;;;;6210740;23;20027;-65
2022/04/14 03:42:21;;;;;;;4.55;2.78;;;19.90;50.40;18.80;101532.00;;;;6211165;23;20046;-65
2022/04/14 03:45:08;;;;;;;2.42;2.22;;;19.90;50.50;18.80;101543.00;;;;6211112;23;20016;-65
2022/04/14 03:47:54;;;;;;;3.25;2.22;;;19.80;50.40;18.80;101544.00;;;;6210354;23;20012;-65
2022/04/14 03:50:40;;;;;;;3.13;2.58;;;19.80;50.40;18.80;101546.00;;;;6211070;23;20016;-65
2022/04/14 03:53:26;;;;;;;2.28;2.05;;;19.90;50.50;18.80;101554.00;;;;6211332;23;20324;-65
2022/04/14 03:56:12;;;;;;;3.13;2.28;;;19.90;50.50;18.80;101555.00;;;;6210852;23;20032;-65
2022/04/14 03:59:00;;;;;;;3.25;2.15;;;19.80;50.40;18.80;101549.00;;;;6209350;23;20012;-65
2022/04/14 04:01:46;;;;;;;6.30;2.33;;;19.80;50.40;18.80;101547.00;;;;6211591;23;20020;-65
2022/04/14 04:04:32;;;;;;;2.95;2.05;;;19.90;50.50;18.80;101543.00;;;;6210294;23;20067;-66
2022/04/14 04:07:18;;;;;;;2.67;2.30;;;19.80;50.40;18.80;101538.00;;;;6211079;23;20016;-65
2022/04/14 04:10:06;;;;;;;2.97;2.15;;;19.80;50.40;18.80;101538.00;;;;6210685;23;20024;-65
2022/04/14 04:12:52;;;;;;;2.58;2.00;;;19.80;50.50;18.80;101546.00;;;;6208373;23;20073;-65
2022/04/14 04:15:38;;;;;;;3.58;2.00;;;19.70;50.50;18.80;101539.00;;;;6210523;23;20020;-65
2022/04/14 04:18:24;;;;;;;4.07;2.30;;;19.90;50.60;18.80;101535.00;;;;6209784;23;20024;-65
2022/04/14 04:21:10;;;;;;;2.78;2.00;;;19.80;50.50;18.80;101546.00;;;;6210378;23;20442;-65
2022/04/14 04:23:56;;;;;;;4.03;2.47;;;19.80;50.50;18.80;101545.00;;;;6209858;23;20027;-65
2022/04/14 04:26:42;;;;;;;2.70;2.00;;;19.70;50.50;18.80;101551.00;;;;6190123;23;20022;-65
2022/04/14 04:29:28;;;;;;;3.05;2.13;;;19.70;50.50;18.80;101552.00;;;;6210179;23;20058;-65
2022/04/14 04:32:14;;;;;;;2.28;1.80;;;19.80;50.50;18.80;101546.00;;;;6209818;23;20021;-65
2022/04/14 04:35:02;;;;;;;2.50;2.30;;;19.80;50.60;18.80;101552.00;;;;6209970;23;20487;-65
2022/04/14 04:37:48;;;;;;;2.47;1.88;;;19.80;50.60;18.80;101559.00;;;;6208767;23;20027;-65
2022/04/14 04:40:34;;;;;;;2.50;2.00;;;19.80;50.60;18.80;101563.00;;;;6208797;23;20090;-65
2022/04/14 04:43:20;;;;;;;2.42;2.03;;;19.70;50.50;18.80;101574.00;;;;6212001;23;20012;-65
2022/04/14 04:46:08;;;;;;;3.40;2.38;;;19.80;50.50;18.80;101572.00;;;;6212930;23;20090;-65
2022/04/14 04:48:54;;;;;;;2.28;2.03;;;19.80;50.60;18.80;101585.00;;;;6212163;23;20430;-65
2022/04/14 04:51:40;;;;;;;3.78;2.30;;;19.80;50.60;18.80;101583.00;;;;6212999;23;20324;-65
2022/04/14 04:54:26;;;;;;;3.60;2.22;;;19.80;50.60;18.80;101583.00;;;;6212141;23;20020;-65
2022/04/14 04:57:13;;;;;;;4.80;2.33;;;19.80;50.60;18.80;101593.00;;;;6212859;23;20062;-65
2022/04/14 04:59:59;;;;;;;3.00;2.20;;;19.80;50.60;18.80;101590.00;;;;6212678;23;20078;-65
2022/04/14 05:02:45;;;;;;;3.95;2.20;;;19.80;50.60;18.80;101600.00;;;;6212668;23;20027;-65
2022/04/14 05:05:31;;;;;;;4.13;2.70;;;19.80;50.60;18.80;101600.00;;;;6212597;23;20017;-65
2022/04/14 05:08:17;;;;;;;3.88;2.40;;;19.80;50.60;18.80;101600.00;;;;6213290;23;20018;-65
2022/04/14 05:11:03;;;;;;;3.10;2.45;;;19.80;50.60;18.80;101600.00;;;;6212755;23;20016;-65
2022/04/14 05:13:49;;;;;;;2.80;2.22;;;19.80;50.60;18.80;101603.00;;;;6212345;23;20477;-65
2022/04/14 05:16:35;;;;;;;4.63;2.30;;;19.80;50.60;18.80;101606.00;;;;6212936;23;20025;-65
2022/04/14 05:19:21;;;;;;;3.25;2.55;;;19.80;50.60;18.80;101615.00;;;;6212183;23;20341;-66
2022/04/14 05:22:07;;;;;;;5.03;2.78;;;19.80;50.60;18.80;101599.00;;;;6211324;23;20027;-65
2022/04/14 05:24:53;;;;;;;3.10;2.33;;;19.80;50.60;18.80;101598.00;;;;6211950;23;20518;-65
2022/04/14 05:27:39;;;;;;;3.65;2.53;;;19.80;50.60;18.80;101603.00;;;;6213018;23;20012;-65
2022/04/14 05:30:25;;;;;;;4.80;3.22;;;19.80;50.60;18.80;101602.00;;;;6211520;23;20017;-65
2022/04/14 05:33:12;;;;;;;4.45;3.03;;;19.80;50.70;18.80;101603.00;;;;6211995;23;20027;-65
2022/04/14 05:35:58;;;;;;;4.72;3.63;;;19.70;50.80;18.80;101609.00;;;;6212452;23;20592;-65
2022/04/14 05:38:44;;;;;;;7.25;4.13;;;19.70;50.70;18.80;101615.00;;;;6211951;23;20024;-65
2022/04/14 05:41:32;;;;;;;6.40;4.18;;;19.70;50.70;18.80;101624.00;;;;6210523;23;20020;-66
2022/04/14 05:44:19;;;;;;;8.68;4.07;;;19.80;50.70;18.80;101608.00;;;;6210939;23;20023;-65
2022/04/14 05:47:05;;;;;;;7.00;4.27;;;19.80;50.80;18.80;101617.00;;;;6212612;23;20392;-65
2022/04/14 05:49:54;;;;;;;7.43;4.75;;;19.80;50.70;18.80;101619.00;;;;6212265;23;20050;-65
2022/04/14 05:52:41;;;;;;;8.75;5.70;;;19.80;50.80;18.70;101619.00;;;;6209909;23;20013;-65
2022/04/14 05:55:28;;;;;;;9.10;6.03;;;19.70;50.80;18.70;101615.00;;;;6209474;23;20150;-65
2022/04/14 05:58:14;;;;;;;11.00;6.47;;;19.80;50.90;18.70;101614.00;;;;6212031;23;20019;-65
2022/04/14 06:01:00;;;;;;;12.25;7.13;;;19.70;50.80;18.70;101613.00;;;;6211654;23;20023;-65
2022/04/14 06:03:46;;;;;;;9.20;6.50;;;19.80;50.90;18.70;101616.00;;;;6211772;23;20071;-65
2022/04/14 06:06:32;;;;;;;9.13;6.47;;;19.70;50.90;18.70;101622.00;;;;6212987;23;20016;-65
2022/04/14 06:09:19;;;;;;;11.95;7.57;;;19.80;50.90;18.70;101618.00;;;;6210700;23;20024;-65
2022/04/14 06:12:06;;;;;;;10.30;7.55;;;19.70;50.90;18.80;101621.00;;;;6211662;23;20020;-65
2022/04/14 06:14:52;;;;;;;13.63;8.57;;;19.80;51.00;18.70;101623.00;;;;6212495;23;20079;-65
2022/04/14 06:17:38;;;;;;;14.27;8.32;;;19.80;51.00;18.70;101628.00;;;;6212220;23;20244;-65
2022/04/14 06:20:24;;;;;;;15.35;8.27;;;19.80;51.10;18.70;101633.00;;;;6211607;23;20343;-65
2022/04/14 06:23:10;;;;;;;14.05;9.10;;;19.70;51.00;18.70;101639.00;;;;6190136;23;20024;-65
2022/04/14 06:25:56;;;;;;;14.23;8.88;;;19.70;50.90;18.70;101636.00;;;;6211301;23;20016;-65
2022/04/14 06:28:45;;;;;;;13.82;9.10;;;19.80;51.00;18.70;101643.00;;;;6211218;23;20013;-65
2022/04/14 06:31:31;;;;;;;13.10;9.15;;;19.70;51.00;18.70;101641.00;;;;6211548;23;20072;-65
2022/04/14 06:34:17;;;;;;;15.75;10.55;;;19.70;51.00;18.70;101634.00;;;;6210686;23;20016;-65
2022/04/14 06:37:03;;;;;;;18.05;10.23;;;19.70;51.10;18.70;101626.00;;;;6208567;23;20020;-65
2022/04/14 06:39:49;;;;;;;15.63;10.77;;;19.70;51.00;18.70;101629.00;;;;6209077;23;20104;-65
2022/04/14 06:42:36;;;;;;;18.63;11.35;;;19.70;51.10;18.70;101631.00;;;;6212072;23;20346;-65
2022/04/14 06:45:22;;;;;;;18.17;10.93;;;19.70;51.10;18.70;101636.00;;;;6211754;23;20418;-65
2022/04/14 06:48:09;;;;;;;18.55;11.88;;;19.70;51.10;18.70;101636.00;;;;6212124;23;20016;-65
2022/04/14 06:50:55;;;;;;;15.88;10.48;;;19.70;51.10;18.70;101633.00;;;;6211234;23;20244;-65
2022/04/14 06:53:43;;;;;;;18.40;11.52;;;19.70;51.10;18.70;101639.00;;;;6212360;23;20020;-65
2022/04/14 06:56:29;;;;;;;;;;;19.70;51.10;18.70;101640.00;;;;6211384;23;20404;-65
2022/04/14 06:59:15;;;;;;;19.48;12.38;;;19.70;51.60;18.70;101640.00;;;;6210805;23;20285;-65
2022/04/14 07:02:01;;;;;;;19.52;12.40;;;19.80;51.00;18.70;101635.00;;;;6211384;23;20024;-65
2022/04/14 07:04:47;;;;;;;20.73;13.15;;;19.80;51.00;18.70;101639.00;;;;6209750;23;20017;-65
2022/04/14 07:07:33;;;;;;;23.92;12.88;;;19.70;51.00;18.70;101641.00;;;;6211343;23;20070;-65
2022/04/14 07:10:19;;;;;;;22.15;13.75;;;19.70;51.10;18.70;101634.00;;;;6210971;23;20020;-66
2022/04/14 07:13:05;;;;;;;23.05;13.70;;;19.70;51.10;18.70;101641.00;;;;6186629;23;20016;-65
2022/04/14 07:15:51;;;;;;;21.48;13.45;;;19.80;51.30;18.70;101640.00;;;;6210242;23;20027;-65
2022/04/14 07:18:38;;;;;;;22.40;14.05;;;19.80;51.20;18.70;101646.00;;;;6211995;23;20024;-65
2022/04/14 07:21:24;;;;;;;22.23;13.93;;;19.70;51.20;18.70;101651.00;;;;6210355;23;20439;-66
2022/04/14 07:24:10;;;;;;;22.15;14.25;;;19.80;51.20;18.70;101645.00;;;;6210246;23;20021;-65
2022/04/14 07:26:56;;;;;;;23.20;14.40;;;19.70;51.20;18.70;101648.00;;;;6211029;23;20013;-65
2022/04/14 07:29:43;;;;;;;22.98;15.05;;;19.70;51.20;18.70;101645.00;;;;6211287;23;20374;-65
2022/04/14 07:32:37;;;;;;;22.88;14.98;;;19.70;51.30;18.70;101637.00;;;;6210587;23;20017;-65
2022/04/14 07:35:25;;;;;;;21.88;14.70;;;19.70;51.30;18.70;101641.00;;;;6211088;23;20386;-65
2022/04/14 07:38:13;;;;;;;22.75;15.05;;;19.70;51.20;18.70;101638.00;;;;6208415;23;20020;-65
2022/04/14 07:41:00;;;;;;;;;;;19.60;51.10;18.70;101637.00;;;;6210714;23;20083;-65
2022/04/14 07:43:46;;;;;;;23.27;14.85;;;19.70;51.10;18.70;101637.00;;;;6212421;23;19912;-65
2022/04/14 07:46:35;;;;;;;24.75;15.85;;;19.70;51.20;18.70;101642.00;;;;6209526;23;20016;-65
2022/04/14 07:49:21;;;;;;;22.95;14.80;;;19.70;51.30;18.70;101639.00;;;;6209734;23;20070;-65
2022/04/14 07:52:08;;;;;;;21.98;14.68;;;19.70;51.30;18.70;101643.00;;;;6212380;23;20570;-65
2022/04/14 07:54:54;;;;;;;25.17;15.80;;;19.70;51.20;18.70;101646.00;;;;6209510;23;20458;-65
2022/04/14 07:57:40;;;;;;;27.48;17.13;;;19.80;51.40;18.70;101647.00;;;;6211341;23;20023;-65
2022/04/14 08:00:27;;;;;;;27.02;17.17;;;19.70;51.40;18.70;101640.00;;;;6211054;23;20024;-65
2022/04/14 08:03:13;;;;;;;25.48;17.05;;;19.70;51.40;18.70;101653.00;;;;6208102;23;20024;-65
2022/04/14 08:05:59;;;;;;;26.48;16.38;;;19.70;51.60;18.70;101647.00;;;;6210479;23;20021;-65
2022/04/14 08:08:45;;;;;;;26.77;15.98;;;19.70;51.60;18.70;101658.00;;;;6189063;23;20013;-65
2022/04/14 08:11:31;;;;;;;26.95;16.25;;;19.70;51.40;18.70;101654.00;;;;6211453;23;20020;-65
2022/04/14 08:14:17;;;;;;;26.40;16.67;;;19.90;51.60;18.70;101655.00;;;;6210586;23;20017;-65
2022/04/14 08:17:04;;;;;;;26.10;17.63;;;19.80;51.70;18.70;101645.00;;;;6208220;23;20023;-65
2022/04/14 08:19:50;;;;;;;30.00;18.38;;;19.70;51.60;18.70;101653.00;;;;6209414;23;20132;-65
2022/04/14 08:22:56;;;;;;;27.02;17.35;;;19.70;51.60;18.70;101648.00;;;;6211790;23;20017;-65
2022/04/14 08:25:42;;;;;;;29.35;18.17;;;19.70;51.60;18.70;101646.00;;;;6188223;23;20078;-65
2022/04/14 08:28:28;;;;;;;27.70;17.67;;;19.80;51.70;18.70;101661.00;;;;6208814;23;20042;-65
2022/04/14 08:31:15;;;;;;;29.00;18.00;;;19.70;51.70;18.70;101655.00;;;;6209141;23;20017;-66
2022/04/14 08:34:02;;;;;;;30.23;18.77;;;19.70;51.80;18.70;101662.00;;;;6209890;23;20016;-65
2022/04/14 08:36:49;;;;;;;28.40;19.10;;;19.70;51.80;18.70;101655.00;;;;6188107;23;20386;-66
2022/04/14 08:39:35;;;;;;;27.10;17.10;;;19.80;51.90;18.70;101655.00;;;;6208879;23;20024;-65
2022/04/14 08:42:37;;;;;;;27.27;17.25;;;19.70;51.70;18.70;101656.00;;;;6207726;23;20354;-65
2022/04/14 08:45:25;;;;;;;28.63;19.00;;;19.80;51.90;18.70;101658.00;;;;6211020;23;20020;-65
2022/04/14 08:48:15;;;;;;;31.42;19.38;;;19.80;51.90;18.70;101658.00;;;;6209139;23;20016;-65
2022/04/14 08:51:01;;;;;;;29.42;18.40;;;19.80;52.20;18.70;101660.00;;;;6209294;23;20494;-65
2022/04/14 08:53:49;;;;;;;27.35;17.80;;;19.90;52.20;18.70;101659.00;;;;6188468;23;20024;-65
2022/04/14 08:56:35;;;;;;;27.70;17.52;;;19.80;51.90;18.70;101656.00;;;;6209308;23;20100;-65
2022/04/14 08:59:21;;;;;;;28.05;18.52;;;19.80;51.90;18.70;101657.00;;;;6209206;23;20016;-65
2022/04/14 09:02:07;;;;;;;27.25;17.75;;;19.80;51.80;18.70;101654.00;;;;6207472;23;20017;-65
2022/04/14 09:04:53;;;;;;;28.55;17.63;;;19.80;51.80;18.70;101665.00;;;;6165278;23;20017;-65
2022/04/14 09:07:39;;;;;;;28.17;17.63;;;19.80;51.80;18.70;101671.00;;;;6187807;23;20347;-65
2022/04/14 09:10:25;;;;;;;27.67;17.95;;;19.80;52.00;18.80;101665.00;;;;6210435;23;20017;-65
2022/04/14 09:13:13;;;;;;;30.27;17.67;;;19.80;51.90;18.80;101665.00;;;;6209903;23;20025;-65
2022/04/14 09:15:59;;;;;;;30.63;18.60;;;19.80;52.10;18.80;101665.00;;;;6166229;23;20021;-65
2022/04/14 09:18:46;;;;;;;31.23;18.48;;;19.80;52.20;18.80;101660.00;;;;6208870;23;20039;-65
2022/04/14 09:21:32;;;;;;;26.97;18.23;;;19.80;52.20;18.80;101659.00;;;;6209316;23;20020;-65
2022/04/14 09:24:18;;;;;;;31.35;17.48;;;19.80;52.30;18.80;101656.00;;;;6186799;23;20031;-65
2022/04/14 09:27:04;;;;;;;26.98;17.15;;;19.80;52.30;18.80;101652.00;;;;6168017;23;20058;-65
2022/04/14 09:29:51;;;;;;;25.65;17.25;;;19.80;52.20;18.80;101654.00;;;;6209191;23;20044;-65
2022/04/14 09:32:39;;;;;;;28.63;17.65;;;19.80;52.00;18.80;101649.00;;;;6213156;23;20630;-65
2022/04/14 09:35:31;;;;;;;;;;;19.80;52.00;18.70;101657.00;;;;6212120;23;20020;-65
2022/04/14 09:38:17;;;;;;;25.40;16.60;;;19.90;51.90;18.80;101650.00;;;;6214967;23;19915;-65
2022/04/14 09:41:05;;;;;;;26.00;16.40;;;19.80;51.90;18.80;101640.00;;;;6210933;23;20024;-65
2022/04/14 09:43:55;;;;;;;25.77;17.13;;;19.90;51.90;18.80;101643.00;;;;6170489;23;20458;-65
2022/04/14 09:46:46;;;;;;;25.13;16.13;;;19.80;51.80;18.80;101643.00;;;;6212553;23;20462;-65
2022/04/14 09:49:32;;;;;;;26.77;17.17;;;19.80;51.90;18.80;101634.00;;;;6211978;23;20022;-65
2022/04/14 09:52:18;;;;;;;26.08;16.10;;;19.80;52.00;18.80;101638.00;;;;6192202;23;20023;-65
2022/04/14 09:55:08;;;;;;;23.88;15.75;;;19.90;52.10;18.80;101641.00;;;;6213191;23;20047;-65
2022/04/14 09:58:17;;;;;;;24.70;15.88;;;19.80;52.10;18.80;101633.00;;;;6211137;23;20016;-65
2022/04/14 10:01:03;;;;;;;24.20;15.10;;;19.80;52.20;18.80;101639.00;;;;6210878;23;20378;-65
2022/04/14 10:03:51;;;;;;;26.50;16.08;;;19.90;52.00;18.80;101635.00;;;;6213290;23;20021;-65
2022/04/14 10:06:37;;;;;;;28.63;15.82;;;19.80;52.20;18.80;101626.00;;;;6211692;23;20554;-65
2022/04/14 10:09:28;;;;;;;24.58;15.80;;;19.80;52.30;18.80;101630.00;;;;6212057;23;20048;-65
2022/04/14 10:12:20;;;;;;;24.45;14.48;;;19.90;52.30;18.80;101635.00;;;;6189662;23;20012;-65
2022/04/14 10:15:09;;;;;;;22.40;15.38;;;19.90;52.40;18.80;101632.00;;;;6213290;23;20405;-65
2022/04/14 10:17:55;;;;;;;22.27;14.18;;;19.90;52.30;18.80;101634.00;;;;6212826;23;20030;-65
2022/04/14 10:20:43;;;;;;;21.23;14.07;;;19.90;52.50;18.80;101619.00;;;;6190230;23;20327;-65
2022/04/14 10:23:30;;;;;;;23.55;14.48;;;19.90;52.30;18.80;101617.00;;;;6211140;23;20023;-65
2022/04/14 10:26:16;;;;;;;19.95;14.85;;;19.90;52.50;18.80;101616.00;;;;6190505;23;20013;-65
2022/04/14 10:29:03;;;;;;;19.98;13.13;;;19.90;52.30;18.80;101618.00;;;;6190516;23;20021;-65
2022/04/14 10:31:53;;;;;;;22.85;13.98;;;19.90;52.50;18.80;101617.00;;;;6212419;23;20020;-65
2022/04/14 10:34:40;;;;;;;22.80;13.63;;;19.90;52.60;18.80;101612.00;;;;6212574;23;20070;-65
2022/04/14 10:37:41;;;;;;;19.90;12.88;;;19.90;52.60;18.80;101604.00;;;;6191795;23;20031;-65
2022/04/14 10:40:27;;;;;;;21.13;12.57;;;19.90;53.00;18.80;101613.00;;;;6190575;23;20363;-65
2022/04/14 10:43:14;;;;;;;20.58;13.05;;;19.90;52.20;18.80;101615.00;;;;6209026;23;20075;-65
2022/04/14 10:46:01;;;;;;;18.77;12.73;;;19.90;52.10;18.80;101609.00;;;;6167544;23;20025;-65
2022/04/14 10:48:47;;;;;;;18.67;12.02;;;19.90;52.20;18.80;101609.00;;;;6190105;23;20019;-65
2022/04/14 10:51:33;;;;;;;18.90;11.35;;;20.00;52.00;18.80;101615.00;;;;6211898;23;20458;-65
2022/04/14 10:54:19;;;;;;;19.67;12.13;;;20.00;51.90;18.80;101620.00;;;;6211933;23;20070;-65
2022/04/14 10:57:05;;;;;;;15.52;11.13;;;20.00;51.80;18.90;101618.00;;;;6189655;23;20051;-65
2022/04/14 10:59:54;;;;;;;18.45;11.40;;;20.00;51.80;18.90;101620.00;;;;6187481;23;20016;-65
2022/04/14 11:03:02;;;;;;;15.82;10.93;;;20.00;51.80;18.90;101631.00;;;;6208968;23;20430;-65
2022/04/14 11:05:50;;;;;;;16.05;10.73;;;20.00;51.80;18.90;101638.00;;;;6208952;23;20024;-65
2022/04/14 11:08:46;;;;;;;17.45;10.98;;;20.00;51.70;18.90;101637.00;;;;6208577;23;20052;-65
2022/04/14 11:11:58;;;;;;;16.27;10.57;;;20.10;52.50;18.90;101634.00;;;;6190716;23;20018;-65
2022/04/14 11:14:49;;;;;;;16.15;10.73;;;20.00;51.60;18.90;101638.00;;;;6208305;23;20469;-65
2022/04/14 11:17:36;;;;;;;15.45;10.23;;;20.10;51.60;18.90;101633.00;;;;6209600;23;20239;-65
2022/04/14 11:20:34;;;;;;;15.35;10.32;;;20.10;51.50;18.90;101633.00;;;;6209981;23;20021;-65
2022/04/14 11:23:24;;;;;;;15.03;9.43;;;20.10;51.50;18.90;101630.00;;;;6209496;23;20102;-65
2022/04/14 11:26:10;;;;;;;14.00;9.98;;;20.10;51.50;18.90;101623.00;;;;6208540;23;20074;-65
2022/04/14 11:28:57;;;;;;;17.02;10.32;;;20.10;51.70;18.90;101623.00;;;;6208493;23;20249;-65
2022/04/14 11:31:44;;;;;;;14.25;9.77;;;20.10;51.70;18.90;101616.00;;;;6209060;23;20072;-65
2022/04/14 11:34:34;;;;;;;13.02;8.80;;;20.10;51.50;18.90;101624.00;;;;6210376;23;20024;-65
2022/04/14 11:37:42;;;;;;;13.93;8.68;;;20.10;51.70;18.90;101629.00;;;;6211463;23;20096;-65
2022/04/14 11:40:28;;;;;;;13.55;9.07;;;20.10;51.50;18.90;101633.00;;;;6187737;23;20016;-65
2022/04/14 11:43:14;;;;;;;13.27;9.38;;;20.10;51.40;18.90;101629.00;;;;6210380;23;20115;-65
2022/04/14 11:46:00;;;;;;;15.18;9.85;;;20.10;51.40;18.90;101629.00;;;;6189913;23;20023;-65
2022/04/14 11:48:46;;;;;;;13.82;9.23;;;20.10;51.70;18.90;101629.00;;;;6208341;23;20347;-65
2022/04/14 11:51:32;;;;;;;12.57;8.75;;;20.10;51.60;18.90;101629.00;;;;6166563;23;20016;-65
2022/04/14 11:54:21;;;;;;;14.38;8.95;;;20.10;51.60;18.90;101625.00;;;;6209457;23;20024;-65
2022/04/14 11:57:11;;;;;;;13.85;8.65;;;20.20;51.50;18.90;101628.00;;;;6211233;23;20027;-65
2022/04/14 12:00:11;;;;;;;11.30;8.02;;;20.10;51.40;19.00;101640.00;;;;6189531;23;20573;-65
2022/04/14 12:02:59;;;;;;;11.82;8.13;;;20.10;51.40;18.90;101634.00;;;;6211916;23;20016;-65
2022/04/14 12:05:52;;;;;;;11.18;7.65;;;20.10;51.40;18.90;101638.00;;;;6208466;23;20013;-65
2022/04/14 12:08:38;;;;;;;11.68;7.63;;;20.20;51.50;19.00;101635.00;;;;6188713;23;20020;-65